Terminal Aerodrome Forecast
Issued by NWS Louisville, KY

Home | Current Version | Previous Version | Text Only | Print | Product List | Glossary On
Versions: 1 2 3 4 5 6 7 8 9 10 11 12 13 14 15 16 17 18 19
993
FTUS43 KLMK 202322
TAFLEX
TAF
KLEX 202322Z 2100/2124 18003KT P6SM FEW150
     FM211000 00000KT 6SM BR SKC
     FM211300 22006KT P6SM FEW050 FEW250=

USA.gov is the U.S. government's official web portal to all federal, state and local government web resources and services.